Time;durP1;ratioP1;P1;durP2;ratioP2;P2;SDS_P1;SDS_P2;PMS_P1;PMS_P2;Temp;Humidity;BMP_temperature;BMP_pressure;BME280_temperature;BME280_humidity;BME280_pressure;Samples;Min_cycle;Max_cycle;Signal;HPM_P1;HPM_P2
2022/06/27 00:00:31;;;;;;;2.78;2.30;;;21.30;99.90;;;;;;5046315;28;20020;-77
2022/06/27 00:02:56;;;;;;;3.90;2.25;;;21.30;99.90;;;;;;5047207;28;20028;-77
2022/06/27 00:05:22;;;;;;;6.50;2.85;;;21.20;99.90;;;;;;5061785;28;20025;-77
2022/06/27 00:07:48;;;;;;;2.72;2.20;;;21.20;99.90;;;;;;5048529;28;20025;-76
2022/06/27 00:10:13;;;;;;;5.90;2.15;;;21.10;99.90;;;;;;5048326;28;20064;-77
2022/06/27 00:12:40;;;;;;;2.40;1.92;;;21.00;99.90;;;;;;5053150;28;20550;-77
2022/06/27 00:15:08;;;;;;;3.38;2.55;;;21.00;99.90;;;;;;5048384;28;20040;-76
2022/06/27 00:17:33;;;;;;;3.10;2.10;;;21.00;99.90;;;;;;5048794;28;20029;-75
2022/06/27 00:19:59;;;;;;;2.80;2.10;;;20.90;99.90;;;;;;5050657;28;20184;-75
2022/06/27 00:22:26;;;;;;;2.95;2.25;;;20.90;99.90;;;;;;5048740;28;20033;-75
2022/06/27 00:24:51;;;;;;;4.50;2.83;;;20.90;99.90;;;;;;5047081;28;20033;-75
2022/06/27 00:27:17;;;;;;;6.10;2.95;;;20.90;99.90;;;;;;5045803;28;20388;-76
2022/06/27 00:29:43;;;;;;;4.70;2.25;;;20.90;99.90;;;;;;5048505;28;20053;-76
2022/06/27 00:32:09;;;;;;;5.25;3.15;;;20.90;99.90;;;;;;5045734;28;20071;-76
2022/06/27 00:34:35;;;;;;;5.85;2.70;;;20.90;99.90;;;;;;5050963;28;20068;-76
2022/06/27 00:37:01;;;;;;;3.63;2.60;;;20.90;99.90;;;;;;5048710;28;20075;-76
2022/06/27 00:39:27;;;;;;;6.50;2.30;;;20.90;99.90;;;;;;5048710;28;20051;-74
2022/06/27 00:41:53;;;;;;;6.32;3.00;;;20.90;99.90;;;;;;5044248;28;20150;-76
2022/06/27 00:44:42;;;;;;;5.47;2.95;;;20.80;99.90;;;;;;5048817;28;20026;-76
2022/06/27 00:47:11;;;;;;;4.82;2.72;;;20.70;99.90;;;;;;5050749;28;20070;-76
2022/06/27 00:49:37;;;;;;;3.47;2.08;;;20.60;99.90;;;;;;5046262;28;20081;-75
2022/06/27 00:52:05;;;;;;;6.00;2.22;;;20.30;99.90;;;;;;5049118;28;20056;-75
2022/06/27 00:54:32;;;;;;;1.95;1.10;;;19.80;99.90;;;;;;5051631;28;20086;-74
2022/06/27 00:56:57;;;;;;;2.85;1.10;;;19.40;99.90;;;;;;5050031;28;20025;-74
2022/06/27 00:59:23;;;;;;;2.53;1.00;;;19.00;99.90;;;;;;5051336;28;20028;-74
2022/06/27 01:01:49;;;;;;;3.53;1.33;;;18.80;99.90;;;;;;5031497;28;20045;-74
2022/06/27 01:04:14;;;;;;;2.28;1.13;;;18.70;99.90;;;;;;5031549;28;20041;-74
2022/06/27 01:06:40;;;;;;;3.05;1.25;;;18.70;99.90;;;;;;5032711;28;20021;-74
2022/06/27 01:09:06;;;;;;;1.98;1.13;;;18.60;99.90;;;;;;5035072;28;20025;-74
2022/06/27 01:11:32;;;;;;;1.30;1.00;;;18.60;99.90;;;;;;5033734;28;20496;-74
2022/06/27 01:13:58;;;;;;;2.33;1.25;;;18.70;99.90;;;;;;5035013;28;20394;-74
2022/06/27 01:16:24;;;;;;;2.13;0.90;;;18.70;99.90;;;;;;5034869;28;20029;-74
2022/06/27 01:18:50;;;;;;;1.95;1.10;;;18.70;99.90;;;;;;5035005;28;20036;-74
2022/06/27 01:21:22;;;;;;;1.02;0.90;;;18.70;99.90;;;;;;5034872;28;20021;-74
2022/06/27 01:23:50;;;;;;;1.50;1.10;;;18.80;99.90;;;;;;5053138;28;20388;-74
2022/06/27 01:26:17;;;;;;;1.50;1.20;;;18.80;99.90;;;;;;5062394;28;20025;-74
2022/06/27 01:28:43;;;;;;;2.58;1.20;;;18.80;99.90;;;;;;5051198;28;20064;-72
2022/06/27 01:31:13;;;;;;;2.88;1.00;;;18.80;99.90;;;;;;5054075;28;20458;-74
2022/06/27 01:33:39;;;;;;;1.85;1.00;;;18.80;99.90;;;;;;5054918;28;20029;-74
2022/06/27 01:38:55;;;;;;;1.25;0.70;;;18.70;99.90;;;;;;5054295;28;20044;-74
2022/06/27 01:41:21;;;;;;;1.00;0.65;;;18.60;99.90;;;;;;5043214;28;20032;-75
2022/06/27 01:43:48;;;;;;;3.30;1.10;;;18.50;99.90;;;;;;5073209;22;20049;-75
2022/06/27 01:46:14;;;;;;;1.48;0.50;;;18.40;99.90;;;;;;5043616;28;20037;-74
2022/06/27 01:48:40;;;;;;;0.70;0.55;;;18.30;99.90;;;;;;5037682;28;20036;-75
2022/06/27 01:51:10;;;;;;;1.70;1.00;;;18.20;99.90;;;;;;5046591;28;20029;-75
2022/06/27 01:53:37;;;;;;;2.28;0.70;;;18.20;99.90;;;;;;5043655;28;20025;-76
2022/06/27 01:56:03;;;;;;;0.82;0.60;;;18.20;99.90;;;;;;5045964;28;20017;-77
2022/06/27 01:58:29;;;;;;;4.10;0.70;;;18.20;99.90;;;;;;5050026;28;20424;-76
2022/06/27 02:00:55;;;;;;;1.58;0.80;;;18.10;99.90;;;;;;5043944;28;20048;-76
2022/06/27 02:03:23;;;;;;;1.20;0.50;;;18.00;99.90;;;;;;5045784;28;20053;-76
2022/06/27 02:05:51;;;;;;;2.45;1.02;;;18.00;99.90;;;;;;5049278;28;20025;-76
2022/06/27 02:08:22;;;;;;;1.63;0.60;;;18.00;99.90;;;;;;5049662;28;20043;-76
2022/06/27 02:10:48;;;;;;;1.42;0.47;;;18.00;99.90;;;;;;5046824;28;20025;-75
2022/06/27 02:13:14;;;;;;;1.52;0.50;;;18.00;99.90;;;;;;5046374;28;20032;-76
2022/06/27 02:16:06;;;;;;;1.75;0.90;;;18.00;99.90;;;;;;5056474;28;20082;-75
2022/06/27 02:18:33;;;;;;;2.25;0.77;;;18.00;99.90;;;;;;5044414;28;20108;-75
2022/06/27 02:21:00;;;;;;;1.77;0.60;;;18.00;99.90;;;;;;5045186;28;20036;-76
2022/06/27 02:23:25;;;;;;;2.13;0.60;;;18.00;99.90;;;;;;5045444;28;20030;-76
2022/06/27 02:25:52;;;;;;;4.22;1.00;;;18.00;99.90;;;;;;5041734;28;20096;-76
2022/06/27 02:28:19;;;;;;;1.08;0.50;;;18.00;99.90;;;;;;5049295;28;20029;-75
2022/06/27 02:30:45;;;;;;;1.20;0.70;;;18.00;99.90;;;;;;5043409;28;20028;-76
2022/06/27 02:33:11;;;;;;;0.93;0.60;;;18.10;99.90;;;;;;5047433;28;20028;-75
2022/06/27 02:35:39;;;;;;;1.20;0.60;;;18.00;99.90;;;;;;5043360;28;20112;-76
2022/06/27 02:38:09;;;;;;;1.13;0.73;;;18.00;99.90;;;;;;5042273;28;20460;-76
2022/06/27 02:40:37;;;;;;;2.67;1.08;;;18.00;99.90;;;;;;5053989;28;20025;-75
2022/06/27 02:43:06;;;;;;;0.88;0.60;;;18.00;99.90;;;;;;5043304;28;20079;-76
2022/06/27 02:45:33;;;;;;;2.22;0.60;;;18.00;99.90;;;;;;5044675;28;20045;-76
2022/06/27 02:48:01;;;;;;;1.08;0.60;;;18.00;99.90;;;;;;5050225;28;20063;-76
2022/06/27 02:50:28;;;;;;;1.27;0.50;;;18.00;99.90;;;;;;5050542;28;20029;-76
2022/06/27 02:52:56;;;;;;;1.73;0.60;;;18.00;99.90;;;;;;5045566;28;20024;-76
2022/06/27 02:55:28;;;;;;;3.40;0.95;;;18.00;99.90;;;;;;5046017;28;20029;-76
2022/06/27 02:58:02;;;;;;;1.70;0.65;;;18.00;99.90;;;;;;5043969;28;20027;-75
2022/06/27 03:00:30;;;;;;;0.70;0.50;;;18.10;99.90;;;;;;5047312;28;20036;-75
2022/06/27 03:02:57;;;;;;;1.25;0.57;;;18.10;99.90;;;;;;5039934;28;20029;-76
2022/06/27 03:05:23;;;;;;;2.03;0.80;;;18.10;99.90;;;;;;5040817;28;20049;-76
2022/06/27 03:07:48;;;;;;;3.03;0.60;;;18.10;99.90;;;;;;5044167;28;20067;-75
2022/06/27 03:10:14;;;;;;;0.70;0.43;;;18.10;99.90;;;;;;5045157;28;20041;-75
2022/06/27 03:12:41;;;;;;;1.80;0.77;;;18.10;99.90;;;;;;5042719;28;20390;-75
2022/06/27 03:15:08;;;;;;;1.67;0.80;;;18.10;99.90;;;;;;5045393;28;20393;-75
2022/06/27 03:17:35;;;;;;;2.40;0.75;;;18.10;99.90;;;;;;5045771;28;20031;-75
2022/06/27 03:20:00;;;;;;;1.15;0.50;;;18.10;99.90;;;;;;5044996;28;20083;-75
2022/06/27 03:22:26;;;;;;;1.80;0.90;;;18.10;99.90;;;;;;5046435;28;20037;-75
2022/06/27 03:24:52;;;;;;;4.10;1.00;;;18.10;99.90;;;;;;5046985;28;20082;-75
2022/06/27 03:27:17;;;;;;;2.80;0.70;;;18.10;99.90;;;;;;5039364;28;20036;-75
2022/06/27 03:29:43;;;;;;;2.78;1.17;;;18.20;99.90;;;;;;5035381;28;20121;-76
2022/06/27 03:32:09;;;;;;;2.47;1.08;;;18.20;99.90;;;;;;5036489;28;20446;-76
2022/06/27 03:34:34;;;;;;;2.28;1.10;;;18.20;99.90;;;;;;5041767;28;20115;-76
2022/06/27 03:37:00;;;;;;;2.42;1.08;;;18.20;99.90;;;;;;5043486;28;20032;-75
2022/06/27 03:39:29;;;;;;;2.67;0.82;;;18.20;99.90;;;;;;5045172;28;20048;-75
2022/06/27 03:41:54;;;;;;;1.25;0.65;;;18.30;99.90;;;;;;5039274;28;20100;-76
2022/06/27 03:44:20;;;;;;;1.80;0.80;;;18.30;99.90;;;;;;5044656;28;20121;-75
2022/06/27 03:46:46;;;;;;;1.65;0.77;;;18.30;99.90;;;;;;5042110;28;20429;-75
2022/06/27 03:51:55;;;;;;;;;;;18.30;99.90;;;;;;5041686;28;20118;-75
2022/06/27 03:54:21;;;;;;;2.80;0.80;;;18.30;99.90;;;;;;5039247;28;20335;-75
2022/06/27 03:56:46;;;;;;;2.05;0.80;;;18.40;99.90;;;;;;5039577;28;20041;-75
2022/06/27 03:59:13;;;;;;;1.17;0.68;;;18.40;99.90;;;;;;5043952;28;20557;-75
2022/06/27 04:01:39;;;;;;;5.57;0.90;;;18.40;99.90;;;;;;5037320;28;20056;-75
2022/06/27 04:04:05;;;;;;;4.07;1.38;;;18.50;99.90;;;;;;5048304;28;20029;-75
2022/06/27 04:06:31;;;;;;;0.52;0.50;;;18.40;99.90;;;;;;5043185;28;20036;-75
2022/06/27 04:08:58;;;;;;;1.88;0.80;;;18.50;99.90;;;;;;5046282;28;20028;-75
2022/06/27 04:11:24;;;;;;;2.70;0.80;;;18.50;99.90;;;;;;5044735;28;20025;-75
2022/06/27 04:13:49;;;;;;;3.72;1.05;;;18.50;99.90;;;;;;5045329;28;20382;-75
2022/06/27 04:16:15;;;;;;;1.80;0.70;;;18.50;99.90;;;;;;5040811;28;20493;-75
2022/06/27 04:18:41;;;;;;;2.97;0.93;;;18.50;99.90;;;;;;5042141;28;20100;-75
2022/06/27 04:21:07;;;;;;;1.98;1.10;;;18.50;99.90;;;;;;5037248;28;20025;-75
2022/06/27 04:23:32;;;;;;;1.20;0.80;;;18.50;99.90;;;;;;5040755;28;20155;-75
2022/06/27 04:25:58;;;;;;;1.38;0.93;;;18.60;99.90;;;;;;5035452;28;20470;-76
2022/06/27 04:28:24;;;;;;;2.20;0.95;;;18.60;99.90;;;;;;5044067;28;20026;-76
2022/06/27 04:30:49;;;;;;;1.58;1.17;;;18.80;99.90;;;;;;5040633;28;20041;-75
2022/06/27 04:33:16;;;;;;;1.05;0.80;;;18.90;99.90;;;;;;5042250;28;20033;-76
2022/06/27 04:35:42;;;;;;;2.80;0.95;;;19.10;99.90;;;;;;5040765;28;20379;-75
2022/06/27 04:38:08;;;;;;;1.42;0.95;;;19.10;99.90;;;;;;5043230;28;20398;-76
2022/06/27 04:40:34;;;;;;;0.93;0.60;;;19.10;99.90;;;;;;5041461;28;20087;-75
2022/06/27 04:43:00;;;;;;;2.83;0.90;;;19.10;99.90;;;;;;5046599;28;20025;-76
2022/06/27 04:45:26;;;;;;;2.53;1.02;;;19.20;99.90;;;;;;5041887;28;20470;-76
2022/06/27 04:47:52;;;;;;;1.10;0.80;;;19.30;99.90;;;;;;5048349;28;20037;-77
2022/06/27 04:50:19;;;;;;;1.67;0.98;;;19.40;99.90;;;;;;5044795;28;20036;-77
2022/06/27 04:52:47;;;;;;;4.07;0.88;;;19.50;99.90;;;;;;5042882;28;20034;-77
2022/06/27 04:55:13;;;;;;;8.55;1.05;;;19.60;99.90;;;;;;5047881;28;20599;-76
2022/06/27 04:57:45;;;;;;;2.10;1.05;;;19.70;99.90;;;;;;5047491;28;20652;-76
2022/06/27 05:00:12;;;;;;;1.77;0.88;;;19.80;99.90;;;;;;5040892;28;20084;-77
2022/06/27 05:02:38;;;;;;;2.63;1.00;;;19.90;99.90;;;;;;5046727;28;20021;-77
2022/06/27 05:05:05;;;;;;;3.60;0.93;;;20.00;99.90;;;;;;5039545;28;20120;-76
2022/06/27 05:07:31;;;;;;;3.05;0.70;;;20.10;99.90;;;;;;5043930;28;20033;-77
2022/06/27 05:09:57;;;;;;;2.03;0.57;;;20.20;99.90;;;;;;5043497;28;20053;-77
2022/06/27 05:12:24;;;;;;;2.28;0.80;;;20.40;99.90;;;;;;5048847;28;20040;-76
2022/06/27 05:14:54;;;;;;;1.85;0.70;;;20.40;99.90;;;;;;5038873;28;20044;-77
2022/06/27 05:17:21;;;;;;;1.05;0.77;;;20.60;99.90;;;;;;5039295;28;20025;-77
2022/06/27 05:19:47;;;;;;;1.40;0.80;;;20.70;99.90;;;;;;5039321;28;20086;-77
2022/06/27 05:22:13;;;;;;;0.75;0.57;;;20.90;99.90;;;;;;5047080;28;20450;-76
2022/06/27 05:24:39;;;;;;;2.33;0.60;;;21.10;99.90;;;;;;5041784;28;20092;-76
2022/06/27 05:27:05;;;;;;;1.27;0.70;;;21.20;99.90;;;;;;5039620;28;20025;-76
2022/06/27 05:29:32;;;;;;;3.33;1.00;;;21.20;99.90;;;;;;5038238;28;20041;-77
2022/06/27 05:31:59;;;;;;;1.25;0.80;;;21.20;99.90;;;;;;5042313;28;20026;-76
2022/06/27 05:34:24;;;;;;;1.27;0.77;;;21.10;99.90;;;;;;5045142;28;20040;-75
2022/06/27 05:36:50;;;;;;;1.60;1.00;;;21.10;99.90;;;;;;5041363;28;20021;-77
2022/06/27 05:39:16;;;;;;;2.55;1.00;;;21.00;99.90;;;;;;5046233;28;20082;-76
2022/06/27 05:41:43;;;;;;;1.63;1.00;;;21.00;99.90;;;;;;5041455;28;20457;-77
2022/06/27 05:44:09;;;;;;;1.45;1.23;;;21.00;99.90;;;;;;5042900;28;20083;-76
2022/06/27 05:46:37;;;;;;;2.47;1.40;;;21.00;99.90;;;;;;5042583;28;20033;-76
2022/06/27 05:49:03;;;;;;;2.72;1.42;;;21.00;99.90;;;;;;5040769;28;20028;-75
2022/06/27 05:51:29;;;;;;;2.47;1.38;;;21.00;99.90;;;;;;5044387;28;20036;-75
2022/06/27 05:54:00;;;;;;;1.58;1.27;;;21.10;99.90;;;;;;5038515;28;20021;-77
2022/06/27 05:56:28;;;;;;;2.05;1.10;;;21.10;99.90;;;;;;5063655;28;20028;-77
2022/06/27 05:58:55;;;;;;;2.10;0.90;;;21.10;99.90;;;;;;5047900;28;20028;-78
2022/06/27 06:01:21;;;;;;;0.82;0.80;;;21.20;99.90;;;;;;5042727;28;20017;-77
2022/06/27 06:03:48;;;;;;;2.42;1.02;;;21.10;99.90;;;;;;5038325;28;20025;-76
2022/06/27 06:06:15;;;;;;;2.13;0.80;;;21.10;99.90;;;;;;5045000;28;20017;-76
2022/06/27 06:08:43;;;;;;;1.52;0.80;;;21.10;99.90;;;;;;5049084;28;20025;-78
2022/06/27 06:11:13;;;;;;;1.85;0.80;;;21.00;99.90;;;;;;5049862;28;20025;-77
2022/06/27 06:13:43;;;;;;;2.60;0.90;;;21.10;99.90;;;;;;5044051;28;20021;-77
2022/06/27 06:16:09;;;;;;;1.05;0.60;;;21.00;99.90;;;;;;5045074;28;20040;-76
2022/06/27 06:18:35;;;;;;;2.65;1.00;;;21.00;99.90;;;;;;5048917;28;20017;-77
2022/06/27 06:21:01;;;;;;;3.80;1.23;;;21.10;99.90;;;;;;5044655;28;20056;-76
2022/06/27 06:23:27;;;;;;;1.52;0.77;;;21.10;99.90;;;;;;5044554;28;20455;-76
2022/06/27 06:25:53;;;;;;;1.30;1.08;;;21.20;99.90;;;;;;5046060;28;20441;-76
2022/06/27 06:28:19;;;;;;;2.03;1.10;;;21.20;99.90;;;;;;5046828;28;20040;-75
2022/06/27 06:30:45;;;;;;;1.40;0.98;;;21.10;99.90;;;;;;5041262;28;20037;-75
2022/06/27 06:33:11;;;;;;;2.67;1.30;;;21.30;99.90;;;;;;5038816;28;20482;-76
2022/06/27 06:35:37;;;;;;;3.33;0.95;;;21.30;99.90;;;;;;5042487;28;20024;-76
2022/06/27 06:38:03;;;;;;;1.90;1.00;;;21.30;99.90;;;;;;5009330;28;20120;-77
2022/06/27 06:40:30;;;;;;;2.53;1.10;;;21.40;99.90;;;;;;5047730;28;20021;-76
2022/06/27 06:42:55;;;;;;;1.92;0.85;;;21.70;99.90;;;;;;5045759;28;20055;-77
2022/06/27 06:45:22;;;;;;;2.35;1.30;;;21.80;99.90;;;;;;5052981;28;20044;-77
2022/06/27 06:47:49;;;;;;;3.33;1.50;;;21.80;99.90;;;;;;5049758;28;20147;-76
2022/06/27 06:50:18;;;;;;;3.90;1.20;;;21.80;99.90;;;;;;5045303;28;20036;-76
2022/06/27 06:52:50;;;;;;;2.42;1.42;;;21.80;99.90;;;;;;5061219;28;20025;-76
2022/06/27 06:55:17;;;;;;;3.67;1.10;;;21.70;99.90;;;;;;5046852;28;20040;-77
2022/06/27 06:57:44;;;;;;;5.95;1.60;;;21.60;99.90;;;;;;5048581;28;20040;-76
2022/06/27 07:00:11;;;;;;;3.90;1.42;;;21.60;99.90;;;;;;5049585;28;20020;-76
2022/06/27 07:02:37;;;;;;;2.35;1.13;;;21.50;99.90;;;;;;5048375;28;20025;-74
2022/06/27 07:05:04;;;;;;;4.90;1.30;;;21.50;99.90;;;;;;5046000;28;20450;-75
2022/06/27 07:07:32;;;;;;;2.67;1.15;;;21.40;99.90;;;;;;5050129;28;20481;-75
2022/06/27 07:09:59;;;;;;;2.25;0.90;;;21.30;99.90;;;;;;5053610;28;20024;-75
2022/06/27 07:12:26;;;;;;;3.40;1.05;;;21.30;99.90;;;;;;5052411;28;20025;-75
2022/06/27 07:14:54;;;;;;;2.58;1.00;;;21.30;99.90;;;;;;5044783;28;20032;-75
2022/06/27 07:17:24;;;;;;;3.10;1.13;;;21.40;99.90;;;;;;5043689;28;20025;-74
2022/06/27 07:19:52;;;;;;;2.55;1.15;;;21.50;99.90;;;;;;5056059;28;20029;-75
2022/06/27 07:22:19;;;;;;;3.17;0.95;;;21.50;99.90;;;;;;5045379;28;20040;-75
2022/06/27 07:24:48;;;;;;;2.58;1.00;;;21.60;99.90;;;;;;5050513;28;20088;-74
2022/06/27 07:27:18;;;;;;;2.50;1.17;;;21.60;99.90;;;;;;5044562;28;20033;-75
2022/06/27 07:29:44;;;;;;;1.60;0.85;;;21.80;99.90;;;;;;5051176;28;20029;-74
2022/06/27 07:32:10;;;;;;;4.32;1.13;;;22.00;99.90;;;;;;5049636;28;20603;-74
2022/06/27 07:34:36;;;;;;;2.03;0.98;;;22.20;99.90;;;;;;5053398;28;20032;-75
2022/06/27 07:37:02;;;;;;;1.77;0.93;;;22.40;99.90;;;;;;5042505;28;20029;-75
2022/06/27 07:39:28;;;;;;;1.83;0.93;;;22.60;99.90;;;;;;5050543;28;20029;-77
2022/06/27 07:44:30;;;;;;;3.28;1.20;;;23.00;99.90;;;;;;5024972;28;20120;-74
2022/06/27 07:46:56;;;;;;;2.03;1.05;;;23.10;99.90;;;;;;5027166;28;20167;-74
2022/06/27 07:49:21;;;;;;;2.63;1.13;;;23.20;99.90;;;;;;5009030;28;20351;-72
2022/06/27 07:51:47;;;;;;;1.85;1.27;;;23.30;99.90;;;;;;5015886;28;20033;-74
2022/06/27 07:54:14;;;;;;;2.20;1.23;;;23.40;99.90;;;;;;5026358;28;20025;-74
2022/06/27 07:56:41;;;;;;;3.20;0.90;;;23.50;99.90;;;;;;5025559;28;20036;-73
2022/06/27 07:59:06;;;;;;;3.22;1.10;;;23.50;99.90;;;;;;5026138;28;20083;-73
2022/06/27 08:01:32;;;;;;;3.53;0.98;;;23.60;99.90;;;;;;5010826;28;20474;-72
2022/06/27 08:03:58;;;;;;;4.30;1.23;;;23.70;99.90;;;;;;5019859;28;20081;-73
2022/06/27 08:06:26;;;;;;;1.75;0.93;;;23.80;99.90;;;;;;5025219;28;20024;-73
2022/06/27 08:08:54;;;;;;;2.03;1.00;;;23.80;99.90;;;;;;5003776;28;20033;-76
2022/06/27 08:11:22;;;;;;;2.67;1.40;;;23.90;99.90;;;;;;5023278;28;20076;-77
2022/06/27 08:13:49;;;;;;;2.65;1.15;;;24.00;99.90;;;;;;5019662;28;20425;-75
2022/06/27 08:16:16;;;;;;;1.23;0.90;;;24.00;99.90;;;;;;5006303;28;20038;-74
2022/06/27 08:18:47;;;;;;;2.78;1.13;;;24.00;99.90;;;;;;5028862;28;20017;-75
2022/06/27 08:21:16;;;;;;;2.17;1.02;;;24.00;99.90;;;;;;5031611;28;20317;-75
2022/06/27 08:23:43;;;;;;;1.08;0.98;;;24.00;99.90;;;;;;5025741;28;20021;-74
2022/06/27 08:26:09;;;;;;;1.92;1.00;;;24.00;99.90;;;;;;5029133;28;20026;-74
2022/06/27 08:28:36;;;;;;;3.00;1.08;;;24.10;99.90;;;;;;5030749;28;20025;-77
2022/06/27 08:31:07;;;;;;;2.38;1.02;;;24.10;99.90;;;;;;5026982;28;20021;-75
2022/06/27 08:33:33;;;;;;;1.02;0.82;;;24.20;99.90;;;;;;5026623;28;20040;-74
2022/06/27 08:36:00;;;;;;;3.10;0.95;;;24.10;99.90;;;;;;5029830;28;20044;-75
2022/06/27 08:38:26;;;;;;;4.32;0.85;;;24.00;99.90;;;;;;5029082;28;20040;-74
2022/06/27 08:40:55;;;;;;;3.83;0.80;;;24.00;99.90;;;;;;5026447;28;20553;-74
2022/06/27 08:43:24;;;;;;;3.03;0.88;;;24.00;99.90;;;;;;5031177;28;20033;-74
2022/06/27 08:45:53;;;;;;;1.52;0.70;;;24.00;99.90;;;;;;5028251;28;20025;-73
2022/06/27 08:48:21;;;;;;;4.60;1.20;;;24.10;99.90;;;;;;5025539;28;20093;-73
2022/06/27 08:50:48;;;;;;;2.03;0.80;;;24.30;99.90;;;;;;5013388;28;20458;-73
2022/06/27 08:53:14;;;;;;;2.85;0.90;;;24.40;99.90;;;;;;5022227;28;20434;-74
2022/06/27 08:55:46;;;;;;;1.95;1.08;;;24.30;99.90;;;;;;5012237;28;20029;-75
2022/06/27 08:58:12;;;;;;;2.95;1.20;;;24.40;99.90;;;;;;5012902;28;20112;-75
2022/06/27 09:00:41;;;;;;;1.33;0.70;;;24.30;99.90;;;;;;5033110;28;20087;-74
2022/06/27 09:03:10;;;;;;;1.27;0.77;;;24.20;99.90;;;;;;5037214;28;20118;-75
2022/06/27 09:05:36;;;;;;;1.00;0.80;;;24.10;99.90;;;;;;5026959;28;20125;-75
2022/06/27 09:08:04;;;;;;;1.77;0.82;;;24.00;99.90;;;;;;5032487;28;20025;-75
2022/06/27 09:10:36;;;;;;;3.97;1.60;;;24.00;99.90;;;;;;5029754;28;20022;-74
2022/06/27 09:13:17;;;;;;;1.75;0.90;;;24.00;99.90;;;;;;5029523;28;20528;-75
2022/06/27 09:15:47;;;;;;;2.17;0.90;;;23.90;99.90;;;;;;5032718;28;20040;-76
2022/06/27 09:18:15;;;;;;;3.92;1.10;;;23.80;99.90;;;;;;5033230;28;20038;-75
2022/06/27 09:20:55;;;;;;;2.72;0.90;;;23.80;99.90;;;;;;5016241;28;20139;-76
2022/06/27 09:23:49;;;;;;;4.57;0.90;;;23.90;99.90;;;;;;5030998;28;20036;-75
2022/06/27 09:26:31;;;;;;;2.10;1.00;;;23.90;99.90;;;;;;5014180;28;20026;-75
2022/06/27 09:29:06;;;;;;;2.28;0.95;;;23.80;99.90;;;;;;5026661;28;20021;-74
2022/06/27 09:31:42;;;;;;;2.47;1.10;;;23.80;99.90;;;;;;5015307;28;20112;-75
2022/06/27 09:34:24;;;;;;;2.65;1.10;;;23.80;99.90;;;;;;5033659;28;20030;-67
2022/06/27 09:36:59;;;;;;;2.47;1.05;;;23.90;99.90;;;;;;5031561;28;20067;-68
2022/06/27 09:39:31;;;;;;;3.15;0.77;;;23.90;99.90;;;;;;5018703;28;20747;-71
2022/06/27 09:42:13;;;;;;;4.50;1.10;;;24.00;99.90;;;;;;5026543;28;20021;-70
2022/06/27 09:44:43;;;;;;;1.73;0.70;;;24.00;99.90;;;;;;5027668;28;20485;-73
2022/06/27 09:47:21;;;;;;;2.15;1.13;;;24.00;99.90;;;;;;5008800;28;20502;-73
2022/06/27 09:49:50;;;;;;;2.25;0.77;;;24.20;99.90;;;;;;5024671;28;20025;-74
2022/06/27 09:52:18;;;;;;;1.40;0.90;;;24.30;99.90;;;;;;5023527;28;20034;-74
2022/06/27 09:54:47;;;;;;;2.00;0.70;;;24.30;99.90;;;;;;5030031;28;20381;-74
2022/06/27 09:57:15;;;;;;;1.05;0.90;;;24.40;99.90;;;;;;5028247;28;20033;-73
2022/06/27 09:59:42;;;;;;;1.83;0.85;;;24.40;99.90;;;;;;5020413;28;21917;-74
2022/06/27 10:02:08;;;;;;;2.30;0.70;;;24.40;99.90;;;;;;5013148;28;20446;-74
2022/06/27 10:04:36;;;;;;;3.88;0.80;;;24.40;99.90;;;;;;5036785;28;20052;-74
2022/06/27 10:07:03;;;;;;;1.52;1.10;;;24.40;99.90;;;;;;5033494;28;20470;-73
2022/06/27 10:09:32;;;;;;;2.45;0.95;;;24.30;99.90;;;;;;5030679;28;20076;-74
2022/06/27 10:12:27;;;;;;;1.50;1.17;;;24.20;99.90;;;;;;5032688;28;20487;-73
2022/06/27 10:15:10;;;;;;;2.22;1.02;;;24.10;99.90;;;;;;5030415;28;20381;-73
2022/06/27 10:17:39;;;;;;;;;;;24.00;99.90;;;;;;5030852;28;20030;-74
2022/06/27 10:20:20;;;;;;;1.92;0.93;;;24.00;99.90;;;;;;5027040;28;19913;-73
2022/06/27 10:23:09;;;;;;;1.42;0.90;;;23.80;99.90;;;;;;5030026;28;20366;-73
2022/06/27 10:25:41;;;;;;;2.22;1.20;;;23.80;99.90;;;;;;5030331;28;20022;-73
2022/06/27 10:28:12;;;;;;;3.17;1.05;;;23.80;99.90;;;;;;5013461;28;20402;-73
2022/06/27 10:30:56;;;;;;;2.38;1.20;;;23.60;99.90;;;;;;5012306;28;20037;-74
2022/06/27 10:33:22;;;;;;;2.30;0.75;;;23.50;99.90;;;;;;5028848;28;20021;-73
2022/06/27 10:38:28;;;;;;;2.25;1.00;;;23.40;99.90;;;;;;5033164;28;20124;-74
2022/06/27 10:41:00;;;;;;;4.57;1.33;;;23.30;99.90;;;;;;5032274;28;20021;-73
2022/06/27 10:43:54;;;;;;;4.43;1.08;;;23.30;99.90;;;;;;5013327;28;20040;-74
2022/06/27 10:46:20;;;;;;;3.88;1.10;;;23.10;99.90;;;;;;5034864;28;20028;-73
2022/06/27 10:48:50;;;;;;;1.30;1.10;;;23.10;99.90;;;;;;5032113;28;20033;-74
2022/06/27 10:51:22;;;;;;;3.63;1.30;;;23.00;99.90;;;;;;5034348;28;20053;-74
2022/06/27 10:53:49;;;;;;;2.55;1.40;;;23.00;99.90;;;;;;5029839;28;20021;-74
2022/06/27 10:56:30;;;;;;;2.13;1.25;;;23.00;99.90;;;;;;5031313;28;20068;-72
2022/06/27 10:59:00;;;;;;;1.80;1.13;;;23.00;99.90;;;;;;5031879;28;20032;-73
2022/06/27 11:01:27;;;;;;;2.55;1.02;;;22.90;99.90;;;;;;5034095;28;20056;-74
2022/06/27 11:03:53;;;;;;;2.92;1.00;;;22.90;99.90;;;;;;5031912;28;20526;-73
2022/06/27 11:06:19;;;;;;;1.98;0.90;;;22.90;99.90;;;;;;5027921;28;20088;-74
2022/06/27 11:08:48;;;;;;;2.25;0.90;;;22.90;99.90;;;;;;5013310;28;20120;-74
2022/06/27 11:11:27;;;;;;;1.38;0.80;;;22.80;99.90;;;;;;5034556;28;20494;-73
2022/06/27 11:13:56;;;;;;;3.38;0.80;;;22.80;99.90;;;;;;5032474;28;20084;-74
2022/06/27 11:16:23;;;;;;;3.28;1.40;;;22.80;99.90;;;;;;5031358;28;20120;-72
2022/06/27 11:18:51;;;;;;;2.58;1.17;;;22.80;99.90;;;;;;5029889;28;20029;-74
2022/06/27 11:21:22;;;;;;;1.05;0.80;;;22.70;99.90;;;;;;5034498;28;20394;-74
2022/06/27 11:23:52;;;;;;;2.45;1.40;;;22.60;99.90;;;;;;5029309;28;20028;-73
2022/06/27 11:26:24;;;;;;;6.78;1.20;;;22.60;99.90;;;;;;5026335;28;20097;-73
2022/06/27 11:34:19;;;;;;;3.65;1.20;;;22.40;99.90;;;;;;5024037;28;20056;-75
2022/06/27 11:36:46;;;;;;;1.40;0.90;;;22.30;99.90;;;;;;5028916;28;20068;-76
2022/06/27 11:39:15;;;;;;;2.00;1.05;;;22.20;99.90;;;;;;5035062;28;20493;-75
2022/06/27 11:41:41;;;;;;;2.28;1.02;;;22.20;99.90;;;;;;5027350;28;20029;-75
2022/06/27 11:44:12;;;;;;;2.05;0.93;;;22.00;99.90;;;;;;5005410;28;20036;-74
2022/06/27 11:46:45;;;;;;;5.13;0.82;;;22.00;99.90;;;;;;5007123;28;20021;-76
2022/06/27 11:49:37;;;;;;;3.63;1.25;;;22.00;99.90;;;;;;5028280;28;20060;-76
2022/06/27 11:52:04;;;;;;;3.30;1.30;;;22.00;99.90;;;;;;5030476;28;20270;-77
2022/06/27 11:54:48;;;;;;;4.53;1.40;;;22.00;99.90;;;;;;5026502;28;20025;-76
2022/06/27 11:57:32;;;;;;;2.75;1.17;;;22.20;99.90;;;;;;5025742;28;20378;-76
2022/06/27 12:00:01;;;;;;;4.65;1.25;;;22.20;99.90;;;;;;5027237;28;20033;-76
2022/06/27 12:02:38;;;;;;;2.60;1.00;;;22.30;99.90;;;;;;5016327;28;20060;-76
2022/06/27 12:05:04;;;;;;;2.08;1.17;;;22.30;99.90;;;;;;5025217;28;20051;-76
2022/06/27 12:07:29;;;;;;;3.40;0.82;;;22.30;99.90;;;;;;5005928;28;20111;-73
2022/06/27 12:09:55;;;;;;;1.48;1.00;;;22.30;99.90;;;;;;5032120;28;20040;-76
2022/06/27 12:12:25;;;;;;;1.08;0.90;;;22.30;99.90;;;;;;5032205;28;20034;-76
2022/06/27 12:14:53;;;;;;;3.58;1.20;;;22.30;99.90;;;;;;5024729;28;20028;-77
2022/06/27 12:17:19;;;;;;;3.85;1.50;;;22.40;99.90;;;;;;5016707;28;20029;-77
2022/06/27 12:19:45;;;;;;;2.55;1.30;;;22.40;99.90;;;;;;5026997;28;20079;-76
2022/06/27 12:22:17;;;;;;;2.25;1.10;;;22.40;99.90;;;;;;5023054;28;20508;-76
2022/06/27 12:24:44;;;;;;;2.25;1.20;;;22.30;99.90;;;;;;5022479;28;20049;-77
2022/06/27 12:27:10;;;;;;;3.83;1.08;;;22.30;99.90;;;;;;5005322;28;20034;-76
2022/06/27 12:29:36;;;;;;;6.22;1.33;;;22.30;99.90;;;;;;5026945;28;20026;-77
2022/06/27 12:32:01;;;;;;;2.65;1.08;;;22.20;99.90;;;;;;5007259;28;20048;-77
2022/06/27 12:34:28;;;;;;;4.15;1.10;;;22.20;99.90;;;;;;5018815;28;20152;-77
2022/06/27 12:36:55;;;;;;;1.40;1.05;;;22.10;99.90;;;;;;5026715;28;20044;-77
2022/06/27 12:39:20;;;;;;;1.55;1.30;;;22.00;99.90;;;;;;5029386;28;20024;-77
2022/06/27 12:41:46;;;;;;;2.30;1.10;;;22.00;99.90;;;;;;5029828;28;20033;-78
2022/06/27 12:44:12;;;;;;;2.67;1.15;;;22.00;99.90;;;;;;5023649;28;20037;-78
2022/06/27 12:46:38;;;;;;;2.38;0.88;;;22.00;99.90;;;;;;5028363;28;20981;-77
2022/06/27 12:49:03;;;;;;;1.20;1.05;;;22.00;99.90;;;;;;5016636;28;20026;-76
2022/06/27 12:51:29;;;;;;;3.42;1.33;;;22.00;99.90;;;;;;5027220;28;20026;-76
2022/06/27 12:53:55;;;;;;;5.03;1.80;;;21.90;99.90;;;;;;5032616;28;20057;-76
2022/06/27 12:56:22;;;;;;;4.63;1.52;;;21.80;99.90;;;;;;5029452;28;20426;-76
2022/06/27 12:58:49;;;;;;;5.03;1.50;;;21.70;99.90;;;;;;5023124;28;20037;-76
2022/06/27 13:01:15;;;;;;;3.55;2.00;;;21.70;99.90;;;;;;5029846;28;20037;-77
2022/06/27 13:03:42;;;;;;;1.20;1.10;;;21.60;99.90;;;;;;5016263;28;20029;-76
2022/06/27 13:06:08;;;;;;;3.65;1.55;;;21.60;99.90;;;;;;5036438;28;20494;-77
2022/06/27 13:08:35;;;;;;;3.65;1.50;;;21.50;99.90;;;;;;5025203;28;20037;-77